PWSweather.com
Personal Weather Stations
Station Observations
BWSWX1
Teesside, BillinghamGB TS23 1DL

TeessideBillinghamGB TS23 1DL

Lat: 54.588219, Lon: -1.289528

Elevation: 39

Station Type: Davis Vantage Pro2 Plus

http://billinghamweather.com/index.php

High Low Average
Temperature 62.8°F17.1°F 41.1°F5.1°F 52.9°F11.6°F
Dew Point 54.3°F12.4°F 39.0°F3.9°F 48.0°F8.9°F
Winds 7.4 mph S11.9 mph S Calm Calm 2.0 mph 3.2 mph
Wind Gusts 15.0 mph24.1 mph -- 4.2 mph6.8 mph
Humidity 95% 67% 84%
Pressure 30.06 in1017.90 in 30.01 in1016.30 in -
Precipitation 0.02 in0.50 in - -
Hour Temp Dew Point Humidity Winds Wind Gusts Pressure Precip Precip Rate Daily Precip Total
12:00 AM 46.9°F8.3°C 44.1°F6.7°C 90% 0.7 mph S1.1 kmh S 2.0 mph3.2 kmh 30.02 in1016.6 mb - 0.00 in0.0 mm 0.00 in0.0 mm
12:10 AM 46.8°F8.2°C 44.0°F6.7°C 90% 1.2 mph S1.9 kmh S 3.0 mph4.8 kmh 30.02 in1016.6 mb - 0.00 in0.0 mm 0.00 in0.0 mm
12:20 AM 46.6°F8.1°C 44.1°F6.7°C 91% 0.1 mph S0.2 kmh S 1.0 mph1.6 kmh 30.02 in1016.6 mb - 0.00 in0.0 mm 0.00 in0.0 mm
12:30 AM 46.4°F8.0°C 44.0°F6.7°C 91% 0.6 mph S1.0 kmh S 1.0 mph1.6 kmh 30.03 in1016.9 mb - 0.00 in0.0 mm 0.00 in0.0 mm
12:40 AM 46.3°F7.9°C 43.8°F6.6°C 91% 0.5 mph SW0.8 kmh SW 1.0 mph1.6 kmh 30.03 in1016.9 mb - 0.00 in0.0 mm 0.00 in0.0 mm
12:50 AM 46.1°F7.8°C 43.6°F6.4°C 91% 0.1 mph SSE0.2 kmh SSE 1.0 mph1.6 kmh 30.04 in1017.3 mb - 0.00 in0.0 mm 0.00 in0.0 mm
01:00 AM 45.8°F7.7°C 43.3°F6.3°C 91% Calm Calm -- 30.04 in1017.3 mb - 0.00 in0.0 mm 0.00 in0.0 mm
01:10 AM 45.6°F7.6°C 43.1°F6.2°C 91% Calm Calm 1.0 mph1.6 kmh 30.04 in1017.3 mb - 0.00 in0.0 mm 0.00 in0.0 mm
01:20 AM 45.3°F7.4°C 42.8°F6.0°C 91% 0.3 mph SSE0.5 kmh SSE 1.0 mph1.6 kmh 30.04 in1017.3 mb - 0.00 in0.0 mm 0.00 in0.0 mm
01:30 AM 45.1°F7.3°C 42.6°F5.9°C 91% Calm Calm -- 30.03 in1016.9 mb - 0.00 in0.0 mm 0.00 in0.0 mm
01:40 AM 45.0°F7.2°C 42.5°F5.8°C 91% Calm Calm -- 30.03 in1016.9 mb - 0.00 in0.0 mm 0.00 in0.0 mm
01:50 AM 44.9°F7.2°C 42.4°F5.8°C 91% Calm Calm -- 30.03 in1016.9 mb - 0.00 in0.0 mm 0.00 in0.0 mm
02:00 AM 44.6°F7.0°C 42.1°F5.6°C 91% Calm Calm -- 30.03 in1016.9 mb - 0.00 in0.0 mm 0.00 in0.0 mm
02:10 AM 44.3°F6.8°C 41.9°F5.5°C 91% Calm Calm -- 30.03 in1016.9 mb - 0.00 in0.0 mm 0.00 in0.0 mm
02:20 AM 44.1°F6.7°C 41.7°F5.4°C 91% Calm Calm -- 30.04 in1017.3 mb - 0.00 in0.0 mm 0.00 in0.0 mm
02:30 AM 43.9°F6.6°C 41.5°F5.3°C 91% Calm Calm -- 30.04 in1017.3 mb - 0.00 in0.0 mm 0.00 in0.0 mm
02:40 AM 43.6°F6.4°C 41.1°F5.1°C 91% Calm Calm -- 30.04 in1017.3 mb - 0.00 in0.0 mm 0.00 in0.0 mm
02:50 AM 43.4°F6.3°C 40.9°F4.9°C 91% Calm Calm -- 30.04 in1017.3 mb - 0.00 in0.0 mm 0.00 in0.0 mm
03:00 AM 43.1°F6.2°C 40.7°F4.8°C 91% Calm Calm -- 30.04 in1017.3 mb - 0.00 in0.0 mm 0.00 in0.0 mm
03:10 AM 42.8°F6.0°C 40.4°F4.7°C 91% Calm Calm -- 30.04 in1017.3 mb - 0.00 in0.0 mm 0.00 in0.0 mm
03:20 AM 42.7°F5.9°C 40.3°F4.6°C 91% Calm Calm -- 30.04 in1017.3 mb - 0.00 in0.0 mm 0.00 in0.0 mm
03:30 AM 42.5°F5.8°C 40.1°F4.5°C 91% Calm Calm -- 30.04 in1017.3 mb - 0.00 in0.0 mm 0.00 in0.0 mm
03:40 AM 42.4°F5.8°C 40.0°F4.4°C 91% Calm Calm -- 30.04 in1017.3 mb - 0.00 in0.0 mm 0.00 in0.0 mm
03:50 AM 42.2°F5.7°C 39.8°F4.3°C 91% Calm Calm -- 30.04 in1017.3 mb - 0.00 in0.0 mm 0.00 in0.0 mm
04:00 AM 42.1°F5.6°C 39.7°F4.3°C 91% Calm Calm -- 30.04 in1017.3 mb - 0.00 in0.0 mm 0.00 in0.0 mm
04:10 AM 42.0°F5.6°C 39.8°F4.3°C 92% Calm Calm -- 30.04 in1017.3 mb - 0.00 in0.0 mm 0.00 in0.0 mm
04:20 AM 41.9°F5.5°C 39.7°F4.3°C 92% Calm Calm -- 30.04 in1017.3 mb - 0.00 in0.0 mm 0.00 in0.0 mm
04:30 AM 41.8°F5.4°C 39.6°F4.2°C 92% Calm Calm -- 30.05 in1017.6 mb - 0.00 in0.0 mm 0.00 in0.0 mm
04:40 AM 41.6°F5.3°C 39.2°F4.0°C 91% Calm Calm -- 30.04 in1017.3 mb - 0.00 in0.0 mm 0.00 in0.0 mm
04:50 AM 41.5°F5.3°C 39.3°F4.1°C 92% Calm Calm -- 30.04 in1017.3 mb - 0.00 in0.0 mm 0.00 in0.0 mm
05:00 AM 41.5°F5.3°C 39.3°F4.1°C 92% Calm Calm -- 30.04 in1017.3 mb - 0.00 in0.0 mm 0.00 in0.0 mm
05:10 AM 41.5°F5.3°C 39.3°F4.1°C 92% Calm Calm -- 30.04 in1017.3 mb - 0.00 in0.0 mm 0.00 in0.0 mm
05:20 AM 41.5°F5.3°C 39.3°F4.1°C 92% Calm Calm -- 30.05 in1017.6 mb - 0.00 in0.0 mm 0.00 in0.0 mm
05:30 AM 41.5°F5.3°C 39.3°F4.1°C 92% Calm Calm -- 30.05 in1017.6 mb - 0.00 in0.0 mm 0.00 in0.0 mm
05:40 AM 41.4°F5.2°C 39.3°F4.1°C 92% Calm Calm -- 30.05 in1017.6 mb - 0.00 in0.0 mm 0.00 in0.0 mm
05:50 AM 41.3°F5.2°C 39.2°F4.0°C 92% Calm Calm -- 30.05 in1017.6 mb - 0.00 in0.0 mm 0.00 in0.0 mm
06:00 AM 41.3°F5.2°C 39.2°F4.0°C 92% Calm Calm -- 30.05 in1017.6 mb - 0.00 in0.0 mm 0.00 in0.0 mm
06:10 AM 41.2°F5.1°C 39.1°F3.9°C 92% Calm Calm -- 30.05 in1017.6 mb - 0.00 in0.0 mm 0.00 in0.0 mm
06:20 AM 41.2°F5.1°C 39.1°F3.9°C 92% Calm Calm -- 30.05 in1017.6 mb - 0.00 in0.0 mm 0.00 in0.0 mm
06:30 AM 41.1°F5.1°C 39.0°F3.9°C 92% Calm Calm -- 30.06 in1017.9 mb - 0.00 in0.0 mm 0.00 in0.0 mm
06:40 AM 41.1°F5.1°C 39.2°F4.0°C 93% Calm Calm -- 30.06 in1017.9 mb - 0.00 in0.0 mm 0.00 in0.0 mm
06:50 AM 41.1°F5.1°C 39.2°F4.0°C 93% Calm Calm -- 30.06 in1017.9 mb - 0.00 in0.0 mm 0.00 in0.0 mm
07:00 AM 41.5°F5.3°C 39.6°F4.2°C 93% Calm Calm -- 30.06 in1017.9 mb - 0.00 in0.0 mm 0.00 in0.0 mm
07:10 AM 42.0°F5.6°C 40.1°F4.5°C 93% Calm Calm -- 30.06 in1017.9 mb - 0.00 in0.0 mm 0.00 in0.0 mm
07:20 AM 42.7°F5.9°C 41.1°F5.1°C 94% Calm Calm -- 30.06 in1017.9 mb - 0.00 in0.0 mm 0.00 in0.0 mm
07:30 AM 43.7°F6.5°C 42.1°F5.6°C 94% Calm Calm -- 30.06 in1017.9 mb - 0.00 in0.0 mm 0.00 in0.0 mm
07:40 AM 44.9°F7.2°C 43.5°F6.4°C 95% Calm Calm -- 30.06 in1017.9 mb - 0.00 in0.0 mm 0.00 in0.0 mm
07:50 AM 46.5°F8.1°C 45.1°F7.3°C 95% Calm Calm -- 30.06 in1017.9 mb - 0.00 in0.0 mm 0.00 in0.0 mm
08:00 AM 47.9°F8.8°C 46.6°F8.1°C 95% Calm Calm -- 30.06 in1017.9 mb - 0.00 in0.0 mm 0.00 in0.0 mm
08:10 AM 49.0°F9.4°C 47.6°F8.7°C 95% Calm Calm -- 30.05 in1017.6 mb - 0.00 in0.0 mm 0.00 in0.0 mm
08:20 AM 50.2°F10.1°C 48.8°F9.3°C 95% Calm Calm -- 30.06 in1017.9 mb - 0.00 in0.0 mm 0.00 in0.0 mm
08:30 AM 51.2°F10.7°C 49.8°F9.9°C 95% Calm Calm -- 30.06 in1017.9 mb - 0.00 in0.0 mm 0.00 in0.0 mm
08:40 AM 52.2°F11.2°C 50.8°F10.4°C 95% Calm Calm -- 30.06 in1017.9 mb - 0.00 in0.0 mm 0.00 in0.0 mm
08:50 AM 53.2°F11.8°C 51.8°F11.0°C 95% 0.2 mph WSW0.3 kmh WSW 1.0 mph1.6 kmh 30.06 in1017.9 mb - 0.00 in0.0 mm 0.00 in0.0 mm
09:00 AM 54.1°F12.3°C 52.1°F11.2°C 93% 0.7 mph SSE1.1 kmh SSE 2.0 mph3.2 kmh 30.06 in1017.9 mb - 0.00 in0.0 mm 0.00 in0.0 mm
09:10 AM 55.2°F12.9°C 52.9°F11.6°C 92% 1.5 mph SW2.4 kmh SW 4.0 mph6.4 kmh 30.06 in1017.9 mb - 0.00 in0.0 mm 0.00 in0.0 mm
09:20 AM 56.5°F13.6°C 53.3°F11.8°C 89% 1.8 mph SW2.9 kmh SW 5.0 mph8.0 kmh 30.06 in1017.9 mb - 0.00 in0.0 mm 0.00 in0.0 mm
09:30 AM 57.6°F14.2°C 53.2°F11.8°C 85% 3.2 mph SSW5.1 kmh SSW 7.0 mph11.3 kmh 30.05 in1017.6 mb - 0.00 in0.0 mm 0.00 in0.0 mm
09:40 AM 58.7°F14.8°C 52.5°F11.4°C 80% 0.7 mph SW1.1 kmh SW 1.0 mph1.6 kmh 30.05 in1017.6 mb - 0.00 in0.0 mm 0.00 in0.0 mm
09:50 AM 59.4°F15.2°C 51.8°F11.0°C 76% 3.4 mph SSW5.5 kmh SSW 7.0 mph11.3 kmh 30.05 in1017.6 mb - 0.00 in0.0 mm 0.00 in0.0 mm
10:00 AM 59.6°F15.3°C 50.9°F10.5°C 73% 5.6 mph S9.0 kmh S 9.0 mph14.5 kmh 30.05 in1017.6 mb - 0.00 in0.0 mm 0.00 in0.0 mm
10:10 AM 59.6°F15.3°C 50.6°F10.3°C 72% 5.6 mph SSW9.0 kmh SSW 10.0 mph16.1 kmh 30.04 in1017.3 mb - 0.00 in0.0 mm 0.00 in0.0 mm
10:20 AM 59.6°F15.3°C 50.5°F10.3°C 72% 6.0 mph SE9.7 kmh SE 12.0 mph19.3 kmh 30.05 in1017.6 mb - 0.00 in0.0 mm 0.00 in0.0 mm
10:30 AM 59.6°F15.3°C 51.0°F10.6°C 73% 3.3 mph WSW5.3 kmh WSW 8.0 mph12.9 kmh 30.05 in1017.6 mb - 0.00 in0.0 mm 0.00 in0.0 mm
10:40 AM 60.2°F15.7°C 51.1°F10.6°C 72% 4.6 mph SSE7.4 kmh SSE 8.0 mph12.9 kmh 30.04 in1017.3 mb - 0.00 in0.0 mm 0.00 in0.0 mm
10:50 AM 60.7°F15.9°C 51.6°F10.9°C 72% 1.9 mph SE3.1 kmh SE 6.0 mph9.7 kmh 30.04 in1017.3 mb - 0.00 in0.0 mm 0.00 in0.0 mm
11:00 AM 61.1°F16.2°C 52.0°F11.1°C 72% 2.7 mph SW4.3 kmh SW 5.0 mph8.0 kmh 30.04 in1017.3 mb - 0.00 in0.0 mm 0.00 in0.0 mm
11:10 AM 61.1°F16.2°C 51.6°F10.9°C 71% 3.9 mph S6.3 kmh S 6.0 mph9.7 kmh 30.04 in1017.3 mb - 0.00 in0.0 mm 0.00 in0.0 mm
11:20 AM 61.0°F16.1°C 51.1°F10.6°C 70% 4.5 mph SW7.2 kmh SW 10.0 mph16.1 kmh 30.03 in1016.9 mb - 0.00 in0.0 mm 0.00 in0.0 mm
11:30 AM 61.5°F16.4°C 51.6°F10.9°C 70% 3.1 mph S5.0 kmh S 4.0 mph6.4 kmh 30.03 in1016.9 mb - 0.00 in0.0 mm 0.00 in0.0 mm
11:40 AM 62.2°F16.8°C 52.3°F11.3°C 70% 2.1 mph WSW3.4 kmh WSW 8.0 mph12.9 kmh 30.03 in1016.9 mb - 0.00 in0.0 mm 0.00 in0.0 mm
11:50 AM 62.4°F16.9°C 51.3°F10.7°C 67% 5.4 mph SW8.7 kmh SW 7.0 mph11.3 kmh 30.03 in1016.9 mb - 0.00 in0.0 mm 0.00 in0.0 mm
12:00 PM 62.5°F16.9°C 51.8°F11.0°C 68% 5.8 mph SSE9.3 kmh SSE 14.0 mph22.5 kmh 30.03 in1016.9 mb - 0.00 in0.0 mm 0.00 in0.0 mm
12:10 PM 62.8°F17.1°C 51.6°F10.9°C 67% 3.4 mph S5.5 kmh S 9.0 mph14.5 kmh 30.03 in1016.9 mb - 0.00 in0.0 mm 0.00 in0.0 mm
12:20 PM 62.0°F16.7°C 50.9°F10.5°C 67% 7.4 mph S11.9 kmh S 13.0 mph20.9 kmh 30.03 in1016.9 mb - 0.00 in0.0 mm 0.00 in0.0 mm
12:30 PM 61.3°F16.3°C 51.0°F10.6°C 69% 6.3 mph S10.1 kmh S 10.0 mph16.1 kmh 30.02 in1016.6 mb - 0.00 in0.0 mm 0.00 in0.0 mm
12:40 PM 60.9°F16.1°C 50.6°F10.3°C 69% 4.6 mph S7.4 kmh S 9.0 mph14.5 kmh 30.02 in1016.6 mb - 0.00 in0.0 mm 0.00 in0.0 mm
12:50 PM 60.4°F15.8°C 50.2°F10.1°C 69% 4.3 mph SSW6.9 kmh SSW 10.0 mph16.1 kmh 30.03 in1016.9 mb - 0.00 in0.0 mm 0.00 in0.0 mm
01:00 PM 60.0°F15.6°C 49.8°F9.9°C 69% 6.3 mph SSW10.1 kmh SSW 12.0 mph19.3 kmh 30.02 in1016.6 mb - 0.00 in0.0 mm 0.00 in0.0 mm
01:10 PM 59.9°F15.5°C 50.4°F10.2°C 71% 4.1 mph SE6.6 kmh SE 6.0 mph9.7 kmh 30.02 in1016.6 mb - 0.00 in0.0 mm 0.00 in0.0 mm
01:20 PM 59.8°F15.4°C 50.4°F10.2°C 71% 2.6 mph S4.2 kmh S 6.0 mph9.7 kmh 30.02 in1016.6 mb - 0.00 in0.0 mm 0.00 in0.0 mm
01:30 PM 59.6°F15.3°C 50.9°F10.5°C 73% 3.6 mph SSE5.8 kmh SSE 6.0 mph9.7 kmh 30.02 in1016.6 mb - 0.00 in0.0 mm 0.00 in0.0 mm
01:40 PM 59.3°F15.2°C 51.4°F10.8°C 75% 3.0 mph ESE4.8 kmh ESE 8.0 mph12.9 kmh 30.02 in1016.6 mb - 0.00 in0.0 mm 0.00 in0.0 mm
01:50 PM 58.8°F14.9°C 51.2°F10.7°C 76% 2.0 mph S3.2 kmh S 3.0 mph4.8 kmh 30.02 in1016.6 mb - 0.01 in0.3 mm 0.01 in0.3 mm
02:00 PM 58.6°F14.8°C 51.8°F11.0°C 78% 2.1 mph SSE3.4 kmh SSE 3.0 mph4.8 kmh 30.02 in1016.6 mb - 0.00 in0.0 mm 0.01 in0.3 mm
02:10 PM 58.4°F14.7°C 52.3°F11.3°C 80% 0.5 mph S0.8 kmh S 2.0 mph3.2 kmh 30.02 in1016.6 mb - 0.00 in0.0 mm 0.01 in0.3 mm
02:20 PM 58.3°F14.6°C 52.5°F11.4°C 81% 0.9 mph S1.4 kmh S 3.0 mph4.8 kmh 30.02 in1016.6 mb - 0.00 in0.0 mm 0.01 in0.3 mm
02:30 PM 58.3°F14.6°C 53.2°F11.8°C 83% 1.2 mph SSE1.9 kmh SSE 3.0 mph4.8 kmh 30.03 in1016.9 mb - 0.00 in0.0 mm 0.01 in0.3 mm
02:40 PM 58.3°F14.6°C 53.2°F11.8°C 83% 2.1 mph SSE3.4 kmh SSE 5.0 mph8.0 kmh 30.02 in1016.6 mb - 0.01 in0.3 mm 0.02 in0.5 mm
02:50 PM 58.4°F14.7°C 53.6°F12.0°C 84% 1.0 mph SSE1.6 kmh SSE 5.0 mph8.0 kmh 30.02 in1016.6 mb - 0.00 in0.0 mm 0.02 in0.5 mm
03:00 PM 59.1°F15.1°C 54.3°F12.4°C 84% 2.7 mph SSE4.3 kmh SSE 4.0 mph6.4 kmh 30.02 in1016.6 mb - 0.00 in0.0 mm 0.02 in0.5 mm
03:10 PM 59.7°F15.4°C 53.9°F12.2°C 81% 2.2 mph E3.5 kmh E 6.0 mph9.7 kmh 30.01 in1016.3 mb - 0.00 in0.0 mm 0.02 in0.5 mm
03:20 PM 59.8°F15.4°C 53.6°F12.0°C 80% 0.3 mph SE0.5 kmh SE 2.0 mph3.2 kmh 30.01 in1016.3 mb - 0.00 in0.0 mm 0.02 in0.5 mm
03:30 PM 59.9°F15.5°C 53.4°F11.9°C 79% 1.6 mph SSE2.6 kmh SSE 3.0 mph4.8 kmh 30.01 in1016.3 mb - 0.00 in0.0 mm 0.02 in0.5 mm
03:40 PM 60.0°F15.6°C 52.1°F11.2°C 75% 5.1 mph E8.2 kmh E 9.0 mph14.5 kmh 30.01 in1016.3 mb - 0.00 in0.0 mm 0.02 in0.5 mm
03:50 PM 60.2°F15.7°C 51.5°F10.8°C 73% 4.6 mph SE7.4 kmh SE 10.0 mph16.1 kmh 30.01 in1016.3 mb - 0.00 in0.0 mm 0.02 in0.5 mm
04:00 PM 60.1°F15.6°C 51.1°F10.6°C 72% 5.1 mph S8.2 kmh S 8.0 mph12.9 kmh 30.01 in1016.3 mb - 0.00 in0.0 mm 0.02 in0.5 mm
04:10 PM 59.9°F15.5°C 50.5°F10.3°C 71% 3.6 mph SSE5.8 kmh SSE 10.0 mph16.1 kmh 30.01 in1016.3 mb - 0.00 in0.0 mm 0.02 in0.5 mm
04:20 PM 59.8°F15.4°C 50.4°F10.2°C 71% 4.5 mph W7.2 kmh W 9.0 mph14.5 kmh 30.02 in1016.6 mb - 0.00 in0.0 mm 0.02 in0.5 mm
04:30 PM 59.6°F15.3°C 50.2°F10.1°C 71% 2.4 mph S3.9 kmh S 5.0 mph8.0 kmh 30.02 in1016.6 mb - 0.00 in0.0 mm 0.02 in0.5 mm
04:40 PM 59.5°F15.3°C 50.5°F10.3°C 72% 3.7 mph SSE6.0 kmh SSE 6.0 mph9.7 kmh 30.02 in1016.6 mb - 0.00 in0.0 mm 0.02 in0.5 mm
04:50 PM 59.2°F15.1°C 50.9°F10.5°C 74% 3.2 mph SE5.1 kmh SE 6.0 mph9.7 kmh 30.02 in1016.6 mb - 0.00 in0.0 mm 0.02 in0.5 mm
05:00 PM 58.9°F14.9°C 51.0°F10.6°C 75% 3.7 mph S6.0 kmh S 8.0 mph12.9 kmh 30.02 in1016.6 mb - 0.00 in0.0 mm 0.02 in0.5 mm
05:10 PM 58.3°F14.6°C 51.1°F10.6°C 77% 2.8 mph S4.5 kmh S 5.0 mph8.0 kmh 30.02 in1016.6 mb - 0.00 in0.0 mm 0.02 in0.5 mm
05:20 PM 57.7°F14.3°C 51.3°F10.7°C 79% 2.6 mph S4.2 kmh S 4.0 mph6.4 kmh 30.02 in1016.6 mb - 0.00 in0.0 mm 0.02 in0.5 mm
05:30 PM 57.1°F13.9°C 51.3°F10.7°C 81% 2.3 mph SSW3.7 kmh SSW 5.0 mph8.0 kmh 30.02 in1016.6 mb - 0.00 in0.0 mm 0.02 in0.5 mm
05:40 PM 56.8°F13.8°C 51.4°F10.8°C 82% 1.8 mph SSW2.9 kmh SSW 4.0 mph6.4 kmh 30.02 in1016.6 mb - 0.00 in0.0 mm 0.02 in0.5 mm
05:50 PM 56.3°F13.5°C 51.2°F10.7°C 83% 3.7 mph S6.0 kmh S 7.0 mph11.3 kmh 30.02 in1016.6 mb - 0.00 in0.0 mm 0.02 in0.5 mm
06:00 PM 56.1°F13.4°C 51.0°F10.6°C 83% 2.0 mph SE3.2 kmh SE 7.0 mph11.3 kmh 30.02 in1016.6 mb - 0.00 in0.0 mm 0.02 in0.5 mm
06:10 PM 56.0°F13.3°C 50.9°F10.5°C 83% 2.3 mph S3.7 kmh S 6.0 mph9.7 kmh 30.02 in1016.6 mb - 0.00 in0.0 mm 0.02 in0.5 mm
06:20 PM 56.0°F13.3°C 50.9°F10.5°C 83% 2.6 mph S4.2 kmh S 4.0 mph6.4 kmh 30.02 in1016.6 mb - 0.00 in0.0 mm 0.02 in0.5 mm
06:30 PM 55.9°F13.3°C 50.5°F10.3°C 82% 3.6 mph SW5.8 kmh SW 5.0 mph8.0 kmh 30.02 in1016.6 mb - 0.00 in0.0 mm 0.02 in0.5 mm
06:40 PM 55.9°F13.3°C 50.5°F10.3°C 82% 3.2 mph SE5.1 kmh SE 9.0 mph14.5 kmh 30.02 in1016.6 mb - 0.00 in0.0 mm 0.02 in0.5 mm
06:50 PM 56.0°F13.3°C 50.3°F10.2°C 81% 1.1 mph S1.8 kmh S 3.0 mph4.8 kmh 30.02 in1016.6 mb - 0.00 in0.0 mm 0.02 in0.5 mm
07:00 PM 56.0°F13.3°C 50.6°F10.3°C 82% 1.4 mph SE2.3 kmh SE 5.0 mph8.0 kmh 30.03 in1016.9 mb - 0.00 in0.0 mm 0.02 in0.5 mm
07:10 PM 56.0°F13.3°C 50.6°F10.3°C 82% 4.4 mph SE7.1 kmh SE 7.0 mph11.3 kmh 30.03 in1016.9 mb - 0.00 in0.0 mm 0.02 in0.5 mm
07:20 PM 56.0°F13.3°C 50.6°F10.3°C 82% 5.4 mph S8.7 kmh S 13.0 mph20.9 kmh 30.03 in1016.9 mb - 0.00 in0.0 mm 0.02 in0.5 mm
07:30 PM 56.0°F13.3°C 50.9°F10.5°C 83% 3.4 mph S5.5 kmh S 6.0 mph9.7 kmh 30.03 in1016.9 mb - 0.00 in0.0 mm 0.02 in0.5 mm
07:40 PM 55.9°F13.3°C 50.8°F10.4°C 83% 4.8 mph S7.7 kmh S 8.0 mph12.9 kmh 30.03 in1016.9 mb - 0.00 in0.0 mm 0.02 in0.5 mm
07:50 PM 55.8°F13.2°C 50.7°F10.4°C 83% 2.3 mph SSE3.7 kmh SSE 8.0 mph12.9 kmh 30.03 in1016.9 mb - 0.00 in0.0 mm 0.02 in0.5 mm
08:00 PM 55.6°F13.1°C 50.5°F10.3°C 83% 2.7 mph S4.3 kmh S 10.0 mph16.1 kmh 30.03 in1016.9 mb - 0.00 in0.0 mm 0.02 in0.5 mm
08:10 PM 55.5°F13.1°C 50.7°F10.4°C 84% 5.1 mph SE8.2 kmh SE 8.0 mph12.9 kmh 30.03 in1016.9 mb - 0.00 in0.0 mm 0.02 in0.5 mm
08:20 PM 55.6°F13.1°C 51.2°F10.7°C 85% 2.3 mph SSE3.7 kmh SSE 4.0 mph6.4 kmh 30.03 in1016.9 mb - 0.00 in0.0 mm 0.02 in0.5 mm
08:30 PM 55.7°F13.2°C 51.3°F10.7°C 85% 3.6 mph SSE5.8 kmh SSE 7.0 mph11.3 kmh 30.03 in1016.9 mb - 0.00 in0.0 mm 0.02 in0.5 mm
08:40 PM 55.8°F13.2°C 51.4°F10.8°C 85% 1.6 mph ESE2.6 kmh ESE 3.0 mph4.8 kmh 30.04 in1017.3 mb - 0.00 in0.0 mm 0.02 in0.5 mm
08:50 PM 56.0°F13.3°C 51.5°F10.8°C 85% 5.2 mph S8.4 kmh S 9.0 mph14.5 kmh 30.04 in1017.3 mb - 0.00 in0.0 mm 0.02 in0.5 mm
09:00 PM 56.2°F13.4°C 51.7°F10.9°C 85% 5.6 mph WSW9.0 kmh WSW 15.0 mph24.1 kmh 30.04 in1017.3 mb - 0.00 in0.0 mm 0.02 in0.5 mm
09:10 PM 56.2°F13.4°C 51.4°F10.8°C 84% 3.8 mph S6.1 kmh S 6.0 mph9.7 kmh 30.04 in1017.3 mb - 0.00 in0.0 mm 0.02 in0.5 mm
09:20 PM 56.2°F13.4°C 51.7°F10.9°C 85% 3.5 mph SE5.6 kmh SE 8.0 mph12.9 kmh 30.04 in1017.3 mb - 0.00 in0.0 mm 0.02 in0.5 mm
09:30 PM 56.3°F13.5°C 51.8°F11.0°C 85% 3.6 mph S5.8 kmh S 7.0 mph11.3 kmh 30.04 in1017.3 mb - 0.00 in0.0 mm 0.02 in0.5 mm
09:40 PM 56.4°F13.6°C 51.9°F11.1°C 85% 6.0 mph SSE9.7 kmh SSE 12.0 mph19.3 kmh 30.04 in1017.3 mb - 0.00 in0.0 mm 0.02 in0.5 mm
09:50 PM 56.5°F13.6°C 52.0°F11.1°C 85% 5.3 mph S8.5 kmh S 8.0 mph12.9 kmh 30.04 in1017.3 mb - 0.00 in0.0 mm 0.02 in0.5 mm
10:00 PM 56.6°F13.7°C 52.1°F11.2°C 85% 4.2 mph S6.8 kmh S 7.0 mph11.3 kmh 30.04 in1017.3 mb - 0.00 in0.0 mm 0.02 in0.5 mm
10:10 PM 56.5°F13.6°C 52.0°F11.1°C 85% 4.7 mph WSW7.6 kmh WSW 10.0 mph16.1 kmh 30.04 in1017.3 mb - 0.00 in0.0 mm 0.02 in0.5 mm
10:20 PM 56.6°F13.7°C 52.5°F11.4°C 86% 3.0 mph SSE4.8 kmh SSE 6.0 mph9.7 kmh 30.04 in1017.3 mb - 0.00 in0.0 mm 0.02 in0.5 mm
10:30 PM 56.5°F13.6°C 52.4°F11.3°C 86% 2.8 mph S4.5 kmh S 7.0 mph11.3 kmh 30.04 in1017.3 mb - 0.00 in0.0 mm 0.02 in0.5 mm
10:40 PM 56.4°F13.6°C 52.3°F11.3°C 86% 2.0 mph SE3.2 kmh SE 6.0 mph9.7 kmh 30.04 in1017.3 mb - 0.00 in0.0 mm 0.02 in0.5 mm
10:50 PM 56.4°F13.6°C 52.2°F11.2°C 86% 3.7 mph SSE6.0 kmh SSE 7.0 mph11.3 kmh 30.04 in1017.3 mb - 0.00 in0.0 mm 0.02 in0.5 mm
11:00 PM 56.4°F13.6°C 52.2°F11.2°C 86% 1.6 mph S2.6 kmh S 3.0 mph4.8 kmh 30.04 in1017.3 mb - 0.00 in0.0 mm 0.02 in0.5 mm
11:10 PM 56.3°F13.5°C 52.2°F11.2°C 86% 1.4 mph SSE2.3 kmh SSE 2.0 mph3.2 kmh 30.05 in1017.6 mb - 0.00 in0.0 mm 0.02 in0.5 mm
11:20 PM 56.2°F13.4°C 52.4°F11.3°C 87% 0.2 mph S0.3 kmh S 2.0 mph3.2 kmh 30.05 in1017.6 mb - 0.00 in0.0 mm 0.02 in0.5 mm
11:30 PM 56.0°F13.3°C 52.2°F11.2°C 87% 0.2 mph S0.3 kmh S 1.0 mph1.6 kmh 30.05 in1017.6 mb - 0.00 in0.0 mm 0.02 in0.5 mm
11:40 PM 55.9°F13.3°C 52.1°F11.2°C 87% 2.0 mph S3.2 kmh S 5.0 mph8.0 kmh 30.05 in1017.6 mb - 0.00 in0.0 mm 0.02 in0.5 mm
11:50 PM 55.8°F13.2°C 52.0°F11.1°C 87% 1.2 mph S1.9 kmh S 3.0 mph4.8 kmh 30.05 in1017.6 mb - 0.00 in0.0 mm 0.02 in0.5 mm